Station: Tfs C  

  Atmospheric Gas Attenuation - ITU Rec 676-11   ----------------- dB/100km -----------------
Date Time Temp RH % AH g/m3 Dew Point Wind Direction Speed kph Gust kph Barometer mB Rainfall Since 9am 24GHz 47GHz 76GHz 122GHz 134GHz 241GHz
08/05 12:30 16.4 59 8.23 8.4 26 32 1013.1 0 18.7 24.6 37.1 97.3 90.5 311.1
08/05 12:20 15.8 58 7.81 7.6 22 24 1013.1 0 17.8 24.1 35.8 93.7 85.9 294.9
08/05 12:10 16 55 7.49 7 22 26 1013.1 0 17.1 23.5 34.5 90.3 81.7 280.3
08/05 12:00 16.2 54 7.45 7 22 26 1013.1 0 17.0 23.4 34.2 89.6 81.0 277.9
08/05 11:50 16.1 56 7.68 7.4 22 26 1013.1 0 17.5 23.8 35.1 92.1 83.9 288.2
08/05 11:40 15.7 60 8.03 8 24 32 1013.1 0 18.3 24.5 36.6 96.1 88.8 305.0
08/05 11:30 16.1 58 7.95 7.9 28 32 1013.1 0 18.1 24.2 36.2 94.8 87.3 299.9
08/05 11:20 16.2 53 7.31 6.6 28 32 1013.1 0 16.7 23.2 33.7 88.3 79.3 271.9
08/05 11:10 16.2 56 7.72 7.6 24 30 1013.1 0 17.6 23.8 35.2 92.3 84.3 289.5
08/05 11:00 16.3 55 7.63 7.4 24 30 1013.1 0 17.4 23.7 34.9 91.3 83.1 285.3
08/05 10:50 15.9 59 7.99 7.9 28 30 1013.1 0 18.2 24.3 36.4 95.4 88.0 302.5
08/05 10:40 15.9 57 7.72 7.5 24 28 1013.1 0 17.6 23.9 35.4 92.7 84.7 290.6
08/05 10:30 15.6 61 8.11 8.2 20 28 1013.1 0 18.5 24.6 37.0 97.0 89.9 308.9
08/05 10:20 15.3 61 7.97 7.8 24 28 1013.1 0 18.2 24.5 36.6 95.9 88.5 303.9
08/05 10:10 15.4 59 7.75 7.5 24 26 1013.1 0 17.7 24.1 35.7 93.6 85.6 293.8
08/05 10:00 15.8 60 8.08 8.2 24 30 1013.1 0 18.4 24.5 36.8 96.5 89.3 306.8
08/05 09:50 16.1 58 7.95 7.9 20 24 1013.1 0 18.1 24.2 36.2 94.8 87.3 299.9
08/05 09:40 15.8 58 7.81 7.7 24 28 1013.1 0 17.8 24.1 35.8 93.7 85.9 294.9
08/05 09:30 15.7 57 7.63 7.4 24 28 1013.1 0 17.4 23.8 35.1 92.0 83.8 287.4
08/05 09:20 15.6 58 7.71 7.5 24 28 1013.1 0 17.6 24.0 35.5 92.9 84.9 291.3
08/05 09:10 15.5 58 7.67 7.3 26 30 1013.1 0 17.5 24.0 35.4 92.6 84.5 289.9
08/05 09:00 15.5 59 7.8 7.5 22 26 1013.1 1 17.8 24.2 35.9 94.0 86.1 295.6
08/05 08:50 15.2 59 7.66 7.4 24 28 1013.1 1 17.5 24.0 35.5 92.9 84.7 290.6
08/05 08:40 14.9 61 7.77 7.6 26 30 1013.1 1 17.8 24.3 36.0 94.4 86.4 296.5
08/05 08:30 15 61 7.82 7.7 28 32 1013.1 1 17.9 24.3 36.2 94.8 86.9 298.4
08/05 08:20 14.8 63 7.98 7.9 26 30 1013.1 1 18.2 24.6 36.9 96.6 89.1 306.2
08/05 08:10 14.7 61 7.68 7.4 24 28 1013.1 1 17.6 24.2 35.8 93.7 85.5 293.3
08/05 08:00 14.6 63 7.88 7.6 24 30 1013.1 1 18.0 24.5 36.6 95.9 88.1 302.5
08/05 07:50 14.4 65 8.04 7.9 24 28 1013.1 1 18.4 24.8 37.3 97.8 90.4 310.5
08/05 07:40 14.2 63 7.69 7.2 24 28 1013.1 1 17.6 24.3 36.0 94.4 86.1 295.6
08/05 07:30 13.9 64 7.67 7.2 24 28 1013.1 1 17.6 24.4 36.1 94.5 86.2 295.8
08/05 07:20 13.6 65 7.65 7.2 24 26 1013.1 1 17.6 24.4 36.1 94.7 86.3 296.0
08/05 07:10 13.6 65 7.65 7.2 28 30 1013.1 1 17.6 24.4 36.1 94.7 86.3 296.0
08/05 07:00 13.5 65 7.6 7.1 26 33 1013.1 1 17.5 24.4 36.0 94.3 85.7 294.2
08/05 06:50 13.6 62 7.3 6.6 32 33 1013.1 1 16.8 23.9 34.8 91.1 81.8 280.4
08/05 06:40 13.7 62 7.34 6.6 32 37 1013.1 1 16.9 23.9 34.9 91.4 82.2 281.9
08/05 06:30 13.7 62 7.34 6.7 32 37 1013.1 1 16.9 23.9 34.9 91.4 82.2 281.9
08/05 06:20 13.8 63 7.51 6.9 26 33 1013.1 1 17.3 24.2 35.5 93.0 84.3 289.0
08/05 06:10 13.8 63 7.51 7 26 33 1013.1 1 17.3 24.2 35.5 93.0 84.3 289.0
08/05 06:00 14.1 62 7.52 7 30 33 1013.1 1 17.3 24.1 35.4 92.7 84.1 288.4
08/05 05:50 14 64 7.72 7.4 30 39 1013.1 1 17.7 24.4 36.2 94.9 86.7 297.7
08/05 05:40 14.3 65 7.99 7.9 32 33 1013.1 1 18.3 24.8 37.1 97.4 89.8 308.6
08/05 05:30 14.3 67 8.23 8.2 30 35 1013.1 1 18.8 25.2 38.1 99.9 92.9 319.4
08/05 05:20 14.3 67 8.23 8.3 28 35 1013.1 1 18.8 25.2 38.1 99.9 92.9 319.4
08/05 05:10 14.2 70 8.55 8.8 24 26 1013.1 1 19.5 25.7 39.4 103.4 97.2 334.4
08/05 05:00 14.2 70 8.55 8.9 28 35 1013.1 1 19.5 25.7 39.4 103.4 97.2 334.4
08/05 04:50 14.1 71 8.62 8.9 30 35 1013.1 1 19.6 25.8 39.7 104.2 98.3 338.1
08/05 04:40 14.1 70 8.5 8.8 30 35 1013.1 1 19.4 25.6 39.2 103.0 96.7 332.6
08/05 04:30 14.1 71 8.62 9 28 37 1013.1 1 19.6 25.8 39.7 104.2 98.3 338.1
08/05 04:20 14.1 72 8.74 9.1 26 30 1013.1 1 19.9 26.0 40.2 105.5 99.9 343.6
08/05 04:10 14.3 71 8.72 9.1 30 35 1013.1 1 19.8 25.9 40.0 105.1 99.3 341.8
08/05 04:00 14.4 70 8.65 9.1 28 35 1013.1 1 19.7 25.8 39.7 104.2 98.3 338.2
08/05 03:50 14.4 72 8.9 9.4 26 32 1013.1 1 20.2 26.2 40.7 106.8 101.6 349.7
08/05 03:40 14.3 71 8.72 9.2 28 41 1013.1 1 19.8 25.9 40.0 105.1 99.3 341.8
08/05 03:30 14.2 72 8.79 9.2 30 41 1013.1 1 20.0 26.1 40.4 105.9 100.4 345.5
08/05 03:20 14.3 69 8.48 8.8 32 39 1013.1 1 19.3 25.6 39.1 102.5 96.2 330.8
08/05 03:10 14.3 70 8.6 9 33 35 1013.1 1 19.6 25.7 39.5 103.8 97.8 336.3
08/05 03:00 14.4 70 8.65 9.1 41 46 1013.1 1 19.7 25.8 39.7 104.2 98.3 338.2
08/05 02:50 14.4 70 8.65 9.1 37 43 1013.1 1 19.7 25.8 39.7 104.2 98.3 338.2
08/05 02:40 14.5 68 8.46 8.7 33 39 1013.1 1 19.3 25.5 38.9 102.0 95.7 329.1
08/05 02:30 14.6 72 9.01 9.6 35 46 1013.1 1 20.4 26.3 41.0 107.8 102.8 353.9
08/05 02:20 14.5 72 8.96 9.6 32 37 1013.1 1 20.3 26.3 40.9 107.4 102.2 352.0
08/05 02:10 14.6 69 8.63 9.1 32 37 1013.1 1 19.6 25.7 39.5 103.7 97.8 336.4
08/05 02:00 14.6 73 9.14 9.9 32 37 1013.1 1 20.7 26.5 41.6 109.2 104.5 360.0
08/05 01:50 14.6 75 9.39 10.2 33 48 1013.1 1 21.2 26.9 42.6 111.9 107.8 371.7
08/05 01:40 14.5 73 9.08 9.8 32 35 1013.1 1 20.6 26.5 41.4 108.6 103.8 357.6
08/05 01:30 14.7 74 9.32 10.1 37 44 1013.1 1 21.1 26.8 42.2 111.0 106.8 367.9
08/05 01:20 14.5 75 9.33 10.1 35 44 1013.1 1 21.1 26.9 42.4 111.4 107.2 369.3
08/05 01:10 14.4 74 9.15 9.8 33 41 1013.1 1 20.7 26.6 41.7 109.5 104.9 361.3
08/05 01:00 14.4 75 9.27 10 33 37 1013.1 1 21.0 26.8 42.2 110.9 106.5 367.0
08/05 00:50 14.4 75 9.27 10.1 39 50 1013.1 1 21.0 26.8 42.2 110.9 106.5 367.0
08/05 00:40 14.3 73 8.97 9.6 35 41 1013.1 1 20.4 26.3 41.0 107.7 102.6 353.4
08/05 00:30 14.1 75 9.1 9.7 30 37 1013.1 0.8 20.6 26.6 41.7 109.4 104.6 360.4
08/05 00:20 13.9 75 8.99 9.5 30 33 1013.1 0.8 20.4 26.5 41.3 108.5 103.4 356.2
08/05 00:10 13.7 75 8.88 9.3 30 32 1013.1 0.8 20.2 26.4 41.0 107.6 102.2 351.9
08/05 00:00 13.6 75 8.83 9.3 32 37 1013.1 0.8 20.1 26.3 40.8 107.2 101.7 350.0
07/05 23:50 13.5 78 9.12 9.7 26 32 1013.1 0.8 20.7 26.8 42.1 110.5 105.7 364.1
07/05 23:40 13.4 78 9.07 9.7 24 28 1013.1 0.8 20.6 26.8 41.9 110.1 105.2 362.2
07/05 23:30 13.1 77 8.79 9.1 26 32 1013.1 0.8 20.0 26.4 40.9 107.4 101.8 350.4
07/05 23:20 13.1 82 9.36 10.1 26 35 1013.1 0.8 21.3 27.4 43.3 113.7 109.6 377.4
07/05 23:10 12.9 82 9.24 9.9 20 26 1013.1 0.8 21.0 27.2 42.9 112.7 108.2 372.7
07/05 23:00 12.6 84 9.29 10 22 26 1013.1 0.8 21.1 27.4 43.3 113.7 109.3 376.5
07/05 22:50 12.3 87 9.45 10.3 20 24 1013.1 0.8 21.5 27.8 44.1 115.9 112.0 385.7
07/05 22:40 12.2 86 9.28 10 24 26 1013.1 0.8 21.1 27.5 43.4 114.1 109.7 378.0
07/05 22:30 12.5 81 8.91 9.4 20 28 1013.1 0.8 20.3 26.8 41.7 109.6 104.2 358.8
07/05 22:20 12.1 82 8.79 9.2 19 22 1013.1 0.8 20.1 26.7 41.4 108.8 103.2 354.9
07/05 22:10 11.8 85 8.95 9.3 20 26 1013.1 0.8 20.4 27.1 42.3 111.0 105.7 363.9
07/05 22:00 11.7 83 8.68 9 17 22 1013.1 0.8 19.9 26.6 41.2 108.2 102.2 351.5
07/05 21:50 11.4 84 8.62 8.8 19 20 1013.1 0.8 19.7 26.6 41.1 107.9 101.8 350.0
07/05 21:40 11.3 83 8.47 8.6 17 22 1013.1 0.8 19.4 26.4 40.5 106.4 99.8 343.2
07/05 21:30 11.2 83 8.41 8.5 15 20 1013.1 0.8 19.3 26.3 40.3 105.9 99.2 340.8
07/05 21:20 11.4 80 8.21 8.1 13 20 1013.1 0.8 18.9 26.0 39.4 103.4 96.2 330.5
07/05 21:10 11.2 78 7.91 7.5 13 15 1013.1 0.8 18.2 25.5 38.3 100.4 92.4 317.2
07/05 21:00 11.1 79 7.96 7.6 17 20 1013.1 0.8 18.3 25.6 38.5 101.1 93.2 320.0
07/05 20:50 10.6 82 8.01 7.7 17 19 1013.1 0.8 18.5 25.9 39.0 102.3 94.5 324.4
07/05 20:40 10.2 84 8 7.6 9 13 1013.1 0.8 18.5 26.0 39.1 102.7 94.9 325.6
07/05 20:30 9.7 87 8.02 7.6 6 11 1013.1 0.6 18.5 26.1 39.5 103.6 95.7 328.6
07/05 20:20 9.3 90 8.09 7.8 4 6 1013.1 0.6 18.7 26.4 40.0 104.9 97.2 333.7
07/05 20:10 9.3 88 7.91 7.5 6 11 1013.1 0.6 18.3 26.1 39.2 102.9 94.7 325.1
07/05 20:00 9.4 87 7.87 7.4 9 15 1013.1 0.6 18.2 26.0 39.0 102.3 94.1 322.7

Last Refresh: 08-May-2026 12:10:20

Bureau of Meteorology